Time;durP1;ratioP1;P1;durP2;ratioP2;P2;SDS_P1;SDS_P2;PMS_P1;PMS_P2;Temp;Humidity;BMP_temperature;BMP_pressure;BME280_temperature;BME280_humidity;BME280_pressure;Samples;Min_cycle;Max_cycle;Signal;HPM_P1;HPM_P2
2022/05/07 00:01:40;;;;;;;16.20;9.18;;;11.90;99.90;;;;;;5045331;28;20053;-76
2022/05/07 00:04:07;;;;;;;12.70;7.70;;;11.80;99.90;;;;;;5052614;28;20072;-76
2022/05/07 00:06:34;;;;;;;15.82;8.57;;;11.80;99.90;;;;;;5049055;28;20587;-76
2022/05/07 00:09:04;;;;;;;19.48;8.13;;;11.70;99.90;;;;;;5042274;28;20057;-77
2022/05/07 00:11:31;;;;;;;26.08;9.43;;;11.70;99.90;;;;;;5052966;28;20088;-78
2022/05/07 00:14:00;;;;;;;23.23;10.23;;;11.70;99.90;;;;;;5046304;28;20048;-76
2022/05/07 00:19:11;;;;;;;23.10;9.43;;;11.50;99.90;;;;;;5053696;28;20048;-77
2022/05/07 00:21:38;;;;;;;26.73;10.15;;;11.50;99.90;;;;;;5051717;28;20045;-76
2022/05/07 00:24:06;;;;;;;11.57;8.15;;;11.50;99.90;;;;;;5036790;28;20057;-77
2022/05/07 00:26:34;;;;;;;21.77;9.15;;;11.40;99.90;;;;;;5014737;28;20045;-77
2022/05/07 00:29:02;;;;;;;27.23;9.45;;;11.30;99.90;;;;;;5032043;28;20053;-78
2022/05/07 00:31:30;;;;;;;22.40;10.50;;;11.30;99.90;;;;;;5049933;28;20090;-76
2022/05/07 00:33:57;;;;;;;19.27;9.27;;;11.20;99.90;;;;;;5030365;28;20045;-77
2022/05/07 00:36:24;;;;;;;16.65;8.95;;;11.20;99.90;;;;;;5032259;28;20660;-72
2022/05/07 00:38:52;;;;;;;16.58;8.32;;;11.20;99.90;;;;;;5032333;28;20495;-71
2022/05/07 00:41:19;;;;;;;19.85;8.80;;;11.10;99.90;;;;;;5036271;28;20053;-72
2022/05/07 00:43:46;;;;;;;16.50;9.02;;;11.10;99.90;;;;;;5024448;28;20053;-71
2022/05/07 00:46:15;;;;;;;23.35;9.57;;;11.10;99.90;;;;;;5013645;28;20053;-72
2022/05/07 00:48:43;;;;;;;14.40;9.30;;;11.00;99.90;;;;;;5032315;28;20045;-72
2022/05/07 00:53:57;;;;;;;21.98;8.88;;;11.00;99.90;;;;;;5036715;28;20513;-72
2022/05/07 00:56:24;;;;;;;20.55;9.38;;;10.90;99.90;;;;;;5017258;28;20073;-72
2022/05/07 00:58:52;;;;;;;20.25;10.27;;;10.90;99.90;;;;;;5015517;28;20067;-72
2022/05/07 01:01:21;;;;;;;17.67;8.55;;;10.90;99.90;;;;;;5046719;28;20462;-72
2022/05/07 01:03:49;;;;;;;15.07;8.13;;;10.80;99.90;;;;;;5031788;28;20080;-72
2022/05/07 01:06:18;;;;;;;17.67;8.48;;;10.70;99.90;;;;;;5050450;28;20509;-72
2022/05/07 01:08:47;;;;;;;14.40;8.40;;;10.70;99.90;;;;;;5049581;28;20041;-72
2022/05/07 01:11:15;;;;;;;16.55;8.77;;;10.60;99.90;;;;;;5030557;28;20095;-72
2022/05/07 01:13:43;;;;;;;14.70;8.63;;;10.60;99.90;;;;;;5044395;28;20045;-71
2022/05/07 01:16:12;;;;;;;13.60;9.60;;;10.60;99.90;;;;;;5051557;28;20091;-73
2022/05/07 01:18:42;;;;;;;14.90;9.73;;;10.60;99.90;;;;;;5044670;28;20056;-72
2022/05/07 01:21:14;;;;;;;21.02;9.60;;;10.60;99.90;;;;;;5012917;28;20081;-71
2022/05/07 01:23:43;;;;;;;13.95;8.93;;;10.60;99.90;;;;;;5030272;28;20123;-71
2022/05/07 01:26:11;;;;;;;18.25;9.68;;;10.50;99.90;;;;;;5031384;28;20052;-71
2022/05/07 01:28:40;;;;;;;13.43;8.77;;;10.60;99.90;;;;;;5030544;28;20049;-72
2022/05/07 01:31:08;;;;;;;18.35;9.13;;;10.60;99.90;;;;;;5037153;28;20478;-77
2022/05/07 01:33:37;;;;;;;19.70;10.18;;;10.60;99.90;;;;;;5051353;28;20052;-78
2022/05/07 01:36:11;;;;;;;21.48;9.05;;;10.60;99.90;;;;;;5047678;28;20045;-76
2022/05/07 01:38:41;;;;;;;16.65;8.85;;;10.60;99.90;;;;;;5033825;28;20505;-78
2022/05/07 01:41:08;;;;;;;17.10;8.68;;;10.60;99.90;;;;;;5029933;28;20057;-72
2022/05/07 01:43:36;;;;;;;15.35;9.20;;;10.60;99.90;;;;;;5047176;28;20060;-72
2022/05/07 01:48:09;;;;;;;16.55;9.52;;;10.50;99.90;;;;;;5034367;28;20074;-72
2022/05/07 01:48:51;;;;;;;16.30;7.88;;;10.40;99.90;;;;;;5032785;28;20131;-71
2022/05/07 01:51:18;;;;;;;11.32;8.15;;;10.40;99.90;;;;;;5048728;28;20391;-71
2022/05/07 01:53:47;;;;;;;14.05;8.38;;;10.30;99.90;;;;;;5050898;28;20508;-71
2022/05/07 01:56:14;;;;;;;15.30;9.40;;;10.30;99.90;;;;;;5031722;28;20471;-72
2022/05/07 01:58:48;;;;;;;21.60;8.60;;;10.20;99.90;;;;;;5048183;28;20083;-71
2022/05/07 02:01:15;;;;;;;20.15;8.48;;;10.20;99.90;;;;;;5036769;28;20057;-78
2022/05/07 02:03:43;;;;;;;15.57;8.10;;;10.20;99.90;;;;;;5051112;28;20132;-79
2022/05/07 02:06:10;;;;;;;14.00;8.10;;;10.20;99.90;;;;;;5037490;28;20045;-78
2022/05/07 02:08:38;;;;;;;11.75;8.43;;;10.20;99.90;;;;;;5045293;28;20055;-79
2022/05/07 02:11:13;;;;;;;11.65;6.93;;;10.20;99.90;;;;;;5034163;28;20045;-78
2022/05/07 02:13:40;;;;;;;16.95;7.63;;;10.20;99.90;;;;;;5032251;28;20045;-77
2022/05/07 02:16:08;;;;;;;16.83;8.25;;;10.20;99.90;;;;;;5019796;28;20136;-77
2022/05/07 02:18:35;;;;;;;12.20;7.80;;;10.30;99.90;;;;;;5050417;28;20055;-78
2022/05/07 02:21:02;;;;;;;15.85;7.60;;;10.30;99.90;;;;;;5050509;28;20049;-77
2022/05/07 02:23:29;;;;;;;11.15;7.55;;;10.20;99.90;;;;;;5049685;28;20564;-76
2022/05/07 02:25:57;;;;;;;14.45;8.63;;;10.20;99.90;;;;;;5029620;28;20052;-75
2022/05/07 02:28:25;;;;;;;12.00;7.47;;;10.20;99.90;;;;;;5032304;28;20045;-75
2022/05/07 02:30:53;;;;;;;17.42;7.88;;;10.20;99.90;;;;;;5050656;28;20044;-75
2022/05/07 02:33:21;;;;;;;12.27;7.80;;;10.20;99.90;;;;;;5027080;28;20053;-76
2022/05/07 02:35:50;;;;;;;9.38;7.60;;;10.30;99.90;;;;;;5036643;28;20045;-76
2022/05/07 02:38:17;;;;;;;10.88;7.03;;;10.20;99.90;;;;;;5048323;28;20639;-78
2022/05/07 02:43:37;;;;;;;11.30;7.50;;;10.30;99.90;;;;;;5047067;28;20051;-76
2022/05/07 02:46:10;;;;;;;10.93;6.75;;;10.30;99.90;;;;;;5048855;28;20045;-77
2022/05/07 02:48:44;;;;;;;9.45;7.10;;;10.30;99.90;;;;;;5049937;28;20501;-77
2022/05/07 02:51:13;;;;;;;8.35;6.97;;;10.30;99.90;;;;;;5047589;28;20504;-72
2022/05/07 02:53:41;;;;;;;10.50;7.35;;;10.30;99.90;;;;;;5046416;28;20068;-74
2022/05/07 02:56:08;;;;;;;14.77;7.07;;;10.30;99.90;;;;;;5048107;28;20064;-71
2022/05/07 02:58:37;;;;;;;10.23;6.53;;;10.30;99.90;;;;;;5049554;28;20080;-71
2022/05/07 03:01:07;;;;;;;12.95;6.95;;;10.30;99.90;;;;;;5038389;28;20099;-72
2022/05/07 03:03:35;;;;;;;10.25;7.20;;;10.30;99.90;;;;;;5029214;28;20063;-72
2022/05/07 03:06:06;;;;;;;9.88;6.90;;;10.30;99.90;;;;;;5030161;28;20072;-78
2022/05/07 03:08:37;;;;;;;8.65;6.90;;;10.30;99.90;;;;;;5013499;28;20529;-78
2022/05/07 03:11:04;;;;;;;14.27;7.22;;;10.30;99.90;;;;;;5043968;28;20059;-77
2022/05/07 03:13:38;;;;;;;12.43;6.55;;;10.30;99.90;;;;;;5048265;28;20055;-77
2022/05/07 03:16:08;;;;;;;14.85;8.07;;;10.30;99.90;;;;;;5049036;28;20421;-77
2022/05/07 03:18:36;;;;;;;19.30;7.45;;;10.30;99.90;;;;;;5031121;28;20090;-76
2022/05/07 03:21:03;;;;;;;17.05;7.40;;;10.40;99.90;;;;;;5029051;28;20140;-72
2022/05/07 03:23:30;;;;;;;13.88;7.22;;;10.40;99.90;;;;;;5037973;28;20051;-72
2022/05/07 03:26:06;;;;;;;10.45;6.40;;;10.50;99.90;;;;;;5032922;28;20057;-71
2022/05/07 03:28:34;;;;;;;14.10;6.82;;;10.60;99.90;;;;;;5025816;28;20041;-72
2022/05/07 03:31:03;;;;;;;14.48;7.30;;;10.70;99.90;;;;;;5051653;28;20386;-71
2022/05/07 03:33:30;;;;;;;21.88;6.63;;;10.80;99.90;;;;;;5050482;28;20473;-71
2022/05/07 03:35:59;;;;;;;19.67;7.03;;;11.00;99.90;;;;;;5017611;28;20130;-71
2022/05/07 03:38:27;;;;;;;12.07;6.28;;;11.10;99.90;;;;;;5020751;28;20052;-71
2022/05/07 03:41:01;;;;;;;9.57;6.82;;;11.10;99.90;;;;;;5031967;28;20049;-73
2022/05/07 03:43:33;;;;;;;10.70;6.57;;;11.20;99.90;;;;;;5033652;28;20053;-72
2022/05/07 03:46:00;;;;;;;9.68;6.03;;;11.30;99.90;;;;;;5017617;28;20143;-72
2022/05/07 03:48:29;;;;;;;8.82;6.18;;;11.30;99.90;;;;;;5043740;28;20597;-72
2022/05/07 03:50:57;;;;;;;9.13;6.85;;;11.40;99.90;;;;;;5015020;28;20559;-72
2022/05/07 03:53:30;;;;;;;14.15;6.90;;;11.40;99.90;;;;;;5034160;28;20123;-71
2022/05/07 03:56:06;;;;;;;9.80;6.82;;;11.30;99.90;;;;;;5016327;28;20060;-72
2022/05/07 03:58:37;;;;;;;12.88;6.97;;;11.30;99.90;;;;;;5015173;28;20053;-75
2022/05/07 04:01:06;;;;;;;11.18;7.00;;;11.30;99.90;;;;;;5033216;28;20061;-72
2022/05/07 04:03:36;;;;;;;9.88;6.60;;;11.20;99.90;;;;;;5052112;28;20076;-72
2022/05/07 04:06:04;;;;;;;8.80;6.32;;;11.20;99.90;;;;;;5035463;28;20049;-72
2022/05/07 04:08:33;;;;;;;8.75;6.15;;;11.20;99.90;;;;;;5031673;28;20524;-76
2022/05/07 04:11:03;;;;;;;15.55;6.80;;;11.20;99.90;;;;;;5019230;28;20053;-75
2022/05/07 04:13:30;;;;;;;14.73;6.80;;;11.30;99.90;;;;;;5030529;28;20143;-75
2022/05/07 04:16:00;;;;;;;11.45;7.03;;;11.30;99.90;;;;;;5050741;28;20433;-75
2022/05/07 04:18:35;;;;;;;9.70;6.72;;;11.40;99.90;;;;;;5051891;28;20053;-76
2022/05/07 04:21:06;;;;;;;12.35;6.40;;;11.50;99.90;;;;;;5053109;28;20057;-77
2022/05/07 04:23:34;;;;;;;13.23;7.30;;;11.60;99.90;;;;;;5034547;28;20052;-76
2022/05/07 04:26:01;;;;;;;11.32;7.13;;;11.80;99.90;;;;;;5050811;28;20159;-76
2022/05/07 04:28:30;;;;;;;9.50;6.53;;;11.90;99.90;;;;;;5030578;28;20505;-76
2022/05/07 04:30:58;;;;;;;10.48;6.75;;;11.90;99.90;;;;;;5033766;28;20081;-77
2022/05/07 04:33:31;;;;;;;9.15;6.07;;;11.90;99.90;;;;;;5039121;28;20052;-75
2022/05/07 04:36:05;;;;;;;13.02;7.15;;;11.90;99.90;;;;;;5028298;28;20214;-72
2022/05/07 04:38:37;;;;;;;10.63;7.28;;;12.00;99.90;;;;;;5032870;28;20107;-72
2022/05/07 04:41:05;;;;;;;11.40;6.80;;;12.00;99.90;;;;;;5047056;28;20117;-73
2022/05/07 04:43:34;;;;;;;11.07;6.97;;;12.00;99.90;;;;;;5041853;28;20132;-73
2022/05/07 04:46:01;;;;;;;13.63;6.85;;;12.00;99.90;;;;;;5030605;28;20124;-72
2022/05/07 04:48:31;;;;;;;9.60;7.38;;;11.90;99.90;;;;;;5031236;28;20524;-76
2022/05/07 04:51:01;;;;;;;12.73;7.35;;;12.00;99.90;;;;;;5016178;28;20081;-77
2022/05/07 04:53:41;;;;;;;9.48;6.50;;;12.00;99.90;;;;;;5039143;28;20136;-76
2022/05/07 04:56:21;;;;;;;15.30;7.03;;;12.00;99.90;;;;;;5051923;28;20045;-77
2022/05/07 04:58:58;;;;;;;11.43;6.97;;;12.10;99.90;;;;;;5050991;28;20136;-78
2022/05/07 05:01:36;;;;;;;11.50;6.65;;;12.30;99.90;;;;;;5049640;28;20540;-77
2022/05/07 05:04:06;;;;;;;12.23;6.80;;;12.50;99.90;;;;;;5032893;28;20077;-78
2022/05/07 05:06:36;;;;;;;9.70;6.20;;;12.50;99.90;;;;;;5049669;28;20057;-73
2022/05/07 05:09:09;;;;;;;8.27;5.53;;;12.40;99.90;;;;;;5035247;28;20124;-73
2022/05/07 05:11:45;;;;;;;10.45;6.97;;;12.30;99.90;;;;;;5038611;28;20049;-73
2022/05/07 05:17:00;;;;;;;12.43;6.65;;;12.20;99.90;;;;;;5051074;28;20060;-74
2022/05/07 05:19:28;;;;;;;12.00;6.43;;;12.30;99.90;;;;;;5038994;28;20045;-73
2022/05/07 05:21:56;;;;;;;8.95;6.43;;;12.60;99.90;;;;;;5031617;28;20063;-74
2022/05/07 05:24:31;;;;;;;14.65;6.53;;;12.90;99.90;;;;;;5040308;28;20040;-72
2022/05/07 05:26:59;;;;;;;12.75;6.15;;;13.40;99.90;;;;;;5051091;28;20057;-73
2022/05/07 05:29:32;;;;;;;15.27;7.00;;;13.90;99.90;;;;;;5033065;28;20079;-72
2022/05/07 05:32:00;;;;;;;11.63;6.55;;;14.30;99.90;;;;;;5049098;28;20048;-72
2022/05/07 05:34:35;;;;;;;11.20;6.22;;;14.70;99.90;;;;;;5049979;28;20048;-74
2022/05/07 05:37:05;;;;;;;10.23;5.40;;;15.20;99.90;;;;;;5017650;28;20080;-72
2022/05/07 05:39:41;;;;;;;11.23;6.30;;;15.40;99.90;;;;;;5048029;28;20045;-73
2022/05/07 05:42:09;;;;;;;13.15;7.20;;;15.60;99.90;;;;;;5030755;28;20364;-73
2022/05/07 05:44:42;;;;;;;22.95;7.22;;;15.90;99.90;;;;;;5044857;28;20088;-73
2022/05/07 05:47:13;;;;;;;12.35;5.85;;;16.10;99.90;;;;;;5023966;28;20045;-73
2022/05/07 05:49:41;;;;;;;11.35;6.07;;;16.40;99.90;;;;;;5032313;28;20517;-72
2022/05/07 05:52:09;;;;;;;10.73;6.80;;;16.90;99.90;;;;;;5014892;28;20053;-74
2022/05/07 05:54:38;;;;;;;12.48;6.78;;;17.40;99.90;;;;;;5040096;28;20053;-73
2022/05/07 05:57:08;;;;;;;10.63;6.03;;;17.70;99.90;;;;;;5043649;28;20080;-73
2022/05/07 05:59:40;;;;;;;9.05;5.78;;;18.00;99.90;;;;;;5032015;28;20138;-77
2022/05/07 06:02:07;;;;;;;7.20;5.47;;;18.30;97.00;;;;;;5032390;28;20072;-80
2022/05/07 06:04:41;;;;;;;11.95;6.38;;;18.60;94.80;;;;;;5032929;28;20095;-73
2022/05/07 06:07:15;;;;;;;16.52;6.07;;;18.90;92.60;;;;;;5024299;28;20059;-73
2022/05/07 06:09:44;;;;;;;18.50;6.53;;;18.90;91.90;;;;;;5041501;28;20053;-73
2022/05/07 06:12:21;;;;;;;14.32;6.32;;;18.90;91.00;;;;;;5042999;28;20051;-72
2022/05/07 06:14:55;;;;;;;;;;;19.20;88.90;;;;;;5043445;28;20053;-73
2022/05/07 06:17:25;;;;;;;11.15;5.57;;;19.40;87.20;;;;;;5015384;28;19925;-72
2022/05/07 06:19:54;;;;;;;15.13;6.03;;;19.90;82.70;;;;;;5048656;28;20536;-81
2022/05/07 06:22:22;;;;;;;47.45;30.88;;;20.30;78.50;;;;;;5041749;28;20053;-71
2022/05/07 06:28:01;;;;;;;12.77;5.60;;;20.90;74.80;;;;;;5045224;28;20045;-78
2022/05/07 06:34:51;;;;;;;15.68;6.20;;;22.00;69.10;;;;;;4839154;29;20067;-72
2022/05/07 06:37:32;;;;;;;16.45;10.18;;;22.20;67.30;;;;;;4935300;29;20036;-73
2022/05/07 06:40:00;;;;;;;13.43;6.60;;;22.30;66.50;;;;;;4958511;28;20053;-75
2022/05/07 06:42:29;;;;;;;12.80;6.22;;;22.70;63.70;;;;;;5035159;28;20061;-74
2022/05/07 06:45:13;;;;;;;12.77;6.78;;;22.90;64.00;;;;;;5039879;28;20476;-73
2022/05/07 06:47:40;;;;;;;11.75;6.28;;;23.30;61.60;;;;;;5041733;28;20413;-73
2022/05/07 06:50:09;;;;;;;8.35;6.93;;;23.30;61.20;;;;;;5014234;28;20502;-72
2022/05/07 06:52:47;;;;;;;15.90;6.65;;;23.30;60.70;;;;;;5015438;28;20155;-74
2022/05/07 06:55:15;;;;;;;18.20;6.68;;;23.20;60.80;;;;;;5045208;28;20037;-77
2022/05/07 06:57:43;;;;;;;13.95;7.50;;;23.00;61.30;;;;;;5046526;28;20049;-78
2022/05/07 07:00:13;;;;;;;13.35;6.25;;;23.00;61.60;;;;;;5048886;28;20053;-79
2022/05/07 07:02:42;;;;;;;14.18;5.95;;;23.20;60.50;;;;;;5049138;28;20045;-79
2022/05/07 07:05:10;;;;;;;12.80;6.22;;;23.70;58.90;;;;;;5047456;28;20049;-73
2022/05/07 07:07:39;;;;;;;15.07;6.47;;;24.00;57.90;;;;;;5031266;28;20072;-79
2022/05/07 07:10:07;;;;;;;10.95;5.63;;;24.10;57.80;;;;;;5040580;28;20045;-73
2022/05/07 07:12:39;;;;;;;13.27;5.50;;;24.10;57.60;;;;;;5048399;28;20049;-78
2022/05/07 07:15:08;;;;;;;9.68;5.18;;;24.30;56.50;;;;;;5044190;28;20103;-76
2022/05/07 07:17:37;;;;;;;9.90;5.20;;;24.70;56.50;;;;;;5032567;28;20508;-73
2022/05/07 07:20:07;;;;;;;11.85;5.40;;;24.70;55.10;;;;;;5031522;28;20045;-74
2022/05/07 07:22:36;;;;;;;13.00;5.95;;;25.30;53.90;;;;;;5047503;28;20057;-75
2022/05/07 07:25:10;;;;;;;11.00;5.47;;;25.60;53.10;;;;;;5050093;28;20053;-78
2022/05/07 07:27:40;;;;;;;13.10;4.82;;;25.70;52.70;;;;;;5053160;28;20057;-78
2022/05/07 07:30:08;;;;;;;11.52;5.35;;;25.10;52.20;;;;;;5048298;28;20053;-80
2022/05/07 07:32:37;;;;;;;15.07;5.22;;;24.60;52.60;;;;;;5030065;28;20528;-77
2022/05/07 07:35:13;;;;;;;16.35;4.95;;;24.30;52.60;;;;;;5048088;28;20421;-74
2022/05/07 07:37:40;;;;;;;9.73;4.13;;;23.70;54.20;;;;;;5045462;28;20041;-73
2022/05/07 07:40:08;;;;;;;14.23;4.45;;;23.80;53.90;;;;;;5035061;28;20049;-76
2022/05/07 07:42:36;;;;;;;13.73;4.90;;;23.40;55.00;;;;;;5049770;28;20459;-79
2022/05/07 07:47:59;;;;;;;8.85;5.20;;;24.30;53.90;;;;;;5028835;28;20468;-72
2022/05/07 07:50:30;;;;;;;8.48;4.47;;;24.80;52.70;;;;;;5039503;28;20053;-74
2022/05/07 07:52:59;;;;;;;12.68;4.18;;;24.00;53.20;;;;;;5045551;28;20051;-78
2022/05/07 07:55:27;;;;;;;7.80;4.53;;;22.90;55.00;;;;;;5046915;28;20045;-76
2022/05/07 07:57:57;;;;;;;10.50;4.50;;;22.60;56.50;;;;;;5029900;28;20489;-73
2022/05/07 08:00:25;;;;;;;9.38;4.65;;;23.50;55.30;;;;;;5048344;28;20107;-77
2022/05/07 08:02:56;;;;;;;8.73;4.20;;;24.50;53.90;;;;;;5030378;28;20548;-77
2022/05/07 08:05:25;;;;;;;16.90;3.63;;;25.70;51.70;;;;;;5046700;28;20088;-74
2022/05/07 08:13:25;;;;;;;12.85;4.00;;;28.00;46.60;;;;;;5046229;28;20052;-73
2022/05/07 08:15:52;;;;;;;9.73;3.75;;;28.20;46.40;;;;;;5052437;28;20566;-73
2022/05/07 08:18:21;;;;;;;11.30;3.58;;;28.70;45.00;;;;;;5048063;28;20402;-74
2022/05/07 08:20:48;;;;;;;7.88;3.40;;;28.90;44.40;;;;;;5055220;28;20048;-73
2022/05/07 08:23:16;;;;;;;11.27;3.17;;;29.00;43.70;;;;;;5051525;28;20045;-73
2022/05/07 08:25:46;;;;;;;10.50;3.78;;;29.40;43.30;;;;;;5061035;28;20037;-74
2022/05/07 08:28:13;;;;;;;13.70;3.75;;;29.70;41.80;;;;;;5060307;28;20119;-77
2022/05/07 08:30:41;;;;;;;9.82;3.20;;;29.50;41.90;;;;;;5048505;28;20089;-73
2022/05/07 08:33:08;;;;;;;6.55;3.30;;;29.20;42.10;;;;;;5052105;28;20038;-78
2022/05/07 08:35:37;;;;;;;15.25;4.53;;;28.60;42.20;;;;;;5048941;28;20071;-72
2022/05/07 08:38:05;;;;;;;10.00;3.30;;;27.50;43.60;;;;;;5049052;28;20041;-80
2022/05/07 08:40:33;;;;;;;19.98;4.32;;;27.70;44.20;;;;;;5047935;28;20049;-76
2022/05/07 08:43:02;;;;;;;20.85;4.28;;;28.40;43.50;;;;;;5047418;28;20067;-77
2022/05/07 08:45:29;;;;;;;10.48;3.72;;;29.10;42.50;;;;;;5051779;28;20520;-74
2022/05/07 08:47:57;;;;;;;8.98;3.30;;;29.00;42.50;;;;;;5050470;28;20466;-78
2022/05/07 08:50:25;;;;;;;7.68;4.10;;;28.90;43.20;;;;;;5051617;28;20045;-77
2022/05/07 08:52:54;;;;;;;12.70;3.85;;;29.10;42.90;;;;;;5050760;28;20080;-75
2022/05/07 08:55:22;;;;;;;10.93;3.47;;;29.80;42.00;;;;;;5047956;28;20503;-74
2022/05/07 08:57:51;;;;;;;14.70;4.20;;;30.00;41.70;;;;;;5048517;28;20065;-75
2022/05/07 09:00:20;;;;;;;11.27;3.60;;;30.70;41.50;;;;;;5053062;28;20041;-77
2022/05/07 09:02:50;;;;;;;12.98;3.72;;;31.20;40.90;;;;;;5047670;28;20072;-77
2022/05/07 09:05:20;;;;;;;14.88;4.07;;;31.70;40.40;;;;;;5055185;28;20139;-78
2022/05/07 09:07:58;;;;;;;12.93;3.38;;;31.50;39.40;;;;;;5054621;28;20053;-77
2022/05/07 09:10:27;;;;;;;8.70;3.05;;;29.60;40.50;;;;;;5053311;28;20414;-77
2022/05/07 09:12:54;;;;;;;18.17;3.75;;;27.60;42.60;;;;;;5049050;28;20049;-76
2022/05/07 09:15:22;;;;;;;12.93;3.70;;;26.10;45.10;;;;;;5044379;28;20095;-76
2022/05/07 09:17:49;;;;;;;8.27;3.05;;;26.60;45.60;;;;;;5049445;28;20045;-75
2022/05/07 09:20:18;;;;;;;9.48;3.13;;;28.10;44.10;;;;;;5044553;28;20083;-75
2022/05/07 09:22:50;;;;;;;7.50;3.05;;;29.10;42.60;;;;;;5036671;28;20045;-76
2022/05/07 09:25:25;;;;;;;11.73;3.90;;;29.70;41.20;;;;;;5042664;28;20041;-73
2022/05/07 09:27:57;;;;;;;7.28;2.72;;;28.10;42.60;;;;;;5048505;28;20090;-73
2022/05/07 09:30:25;;;;;;;11.07;3.00;;;27.90;43.60;;;;;;5048005;28;20468;-76
2022/05/07 09:32:55;;;;;;;6.45;3.10;;;28.70;42.80;;;;;;5065908;28;20163;-75
2022/05/07 09:38:12;;;;;;;6.03;2.50;;;29.50;42.00;;;;;;5026796;28;20118;-75
2022/05/07 09:40:42;;;;;;;12.95;2.65;;;30.00;40.10;;;;;;5047193;28;20425;-74
2022/05/07 09:43:12;;;;;;;8.32;2.75;;;29.10;40.80;;;;;;5043818;28;20057;-78
2022/05/07 09:45:40;;;;;;;10.10;2.75;;;29.40;41.30;;;;;;5044716;28;20465;-79
2022/05/07 09:48:12;;;;;;;9.77;2.65;;;30.00;40.50;;;;;;5050867;28;20124;-79
2022/05/07 09:50:47;;;;;;;8.30;2.83;;;29.20;40.10;;;;;;5057096;28;20045;-77
2022/05/07 09:58:59;;;;;;;9.65;2.78;;;24.50;47.80;;;;;;5064758;28;20163;-90
2022/05/07 10:01:30;;;;;;;;;;;26.10;46.50;;;;;;5069073;28;20104;-81
2022/05/07 10:04:37;;;;;;;9.77;3.22;;;27.90;44.50;;;;;;5048620;28;19935;-79
2022/05/07 10:07:33;;;;;;;9.07;2.90;;;27.80;43.10;;;;;;5053793;28;20531;-78
2022/05/07 10:10:12;;;;;;;6.80;2.47;;;26.60;44.90;;;;;;5068355;28;20214;-76
2022/05/07 10:12:45;;;;;;;6.22;2.58;;;26.40;45.10;;;;;;5065294;28;20064;-77
2022/05/07 10:15:17;;;;;;;5.57;3.00;;;25.30;46.50;;;;;;5059183;28;20152;-78
2022/05/07 10:17:58;;;;;;;7.82;2.63;;;24.70;48.40;;;;;;5040629;28;20069;-73
2022/05/07 10:20:26;;;;;;;5.82;2.30;;;25.20;47.50;;;;;;5047207;28;20044;-74
2022/05/07 10:22:57;;;;;;;5.90;2.50;;;24.90;46.50;;;;;;5049695;28;20049;-74
2022/05/07 10:25:25;;;;;;;4.53;2.70;;;24.10;47.50;;;;;;5052990;28;20114;-76
2022/05/07 10:28:10;;;;;;;11.48;2.55;;;24.40;47.60;;;;;;5070558;28;20040;-75
2022/05/07 10:30:48;;;;;;;7.38;2.80;;;25.90;46.30;;;;;;5053042;28;20071;-76
2022/05/07 10:33:18;;;;;;;7.78;2.80;;;26.10;44.60;;;;;;5065996;28;20048;-75
2022/05/07 10:35:49;;;;;;;8.35;2.47;;;25.50;45.90;;;;;;5063154;28;20047;-75
2022/05/07 10:38:26;;;;;;;7.13;2.35;;;25.40;46.20;;;;;;5049797;28;20421;-75
2022/05/07 10:40:57;;;;;;;8.90;2.50;;;26.50;46.00;;;;;;5058164;28;20048;-76
2022/05/07 10:43:28;;;;;;;12.07;2.75;;;28.30;43.40;;;;;;5068112;28;20580;-75
2022/05/07 10:45:56;;;;;;;7.18;3.00;;;28.60;41.90;;;;;;5061139;28;20057;-75
2022/05/07 10:48:23;;;;;;;5.93;2.53;;;27.50;42.60;;;;;;5048403;28;20040;-78
2022/05/07 10:50:53;;;;;;;13.23;2.95;;;27.70;43.40;;;;;;5056922;28;20149;-78
2022/05/07 10:53:21;;;;;;;2.33;2.10;;;28.90;42.30;;;;;;5051825;28;20110;-75
2022/05/07 10:55:52;;;;;;;6.55;2.78;;;30.00;41.30;;;;;;5063611;28;20060;-76
2022/05/07 10:58:31;;;;;;;7.72;3.20;;;30.80;40.30;;;;;;5038123;28;20057;-76
2022/05/07 11:01:03;;;;;;;8.05;2.70;;;31.00;39.60;;;;;;5028990;28;20560;-76
2022/05/07 11:03:32;;;;;;;5.88;2.50;;;30.50;40.20;;;;;;5070250;28;20459;-76
2022/05/07 11:06:02;;;;;;;7.03;2.70;;;29.00;40.90;;;;;;5058175;28;20563;-75
2022/05/07 11:08:30;;;;;;;6.70;3.15;;;27.40;43.10;;;;;;5049238;28;20063;-78
2022/05/07 11:11:09;;;;;;;9.30;2.78;;;26.30;44.60;;;;;;5049271;28;20088;-76
2022/05/07 11:13:50;;;;;;;6.00;3.13;;;25.60;45.60;;;;;;5050410;28;20076;-75
2022/05/07 11:16:19;;;;;;;7.93;2.45;;;24.90;46.70;;;;;;5048080;28;20049;-75
2022/05/07 11:18:49;;;;;;;8.18;2.55;;;24.10;47.70;;;;;;5049671;28;20143;-75
2022/05/07 11:21:16;;;;;;;5.72;2.70;;;23.30;49.10;;;;;;5059148;28;20532;-76
2022/05/07 11:23:45;;;;;;;6.55;2.50;;;22.80;51.10;;;;;;5071120;28;20067;-76
2022/05/07 11:26:17;;;;;;;14.02;3.08;;;22.70;51.10;;;;;;5049604;28;20052;-76
2022/05/07 11:28:47;;;;;;;14.52;3.08;;;23.30;51.00;;;;;;5049486;28;20508;-76
2022/05/07 11:31:26;;;;;;;17.70;2.97;;;24.30;48.90;;;;;;5060006;28;20048;-76
2022/05/07 11:34:06;;;;;;;27.67;4.05;;;24.10;49.10;;;;;;5048571;28;20049;-76
2022/05/07 11:36:36;;;;;;;23.77;3.25;;;24.10;50.10;;;;;;5056105;28;20049;-75
2022/05/07 11:39:06;;;;;;;18.92;3.22;;;25.30;49.30;;;;;;5068738;28;20048;-75
2022/05/07 11:41:35;;;;;;;31.15;4.03;;;25.90;47.70;;;;;;5055448;28;20053;-74
2022/05/07 11:46:54;;;;;;;16.52;3.05;;;25.10;49.70;;;;;;5050273;28;20200;-76
2022/05/07 11:49:33;;;;;;;14.32;2.65;;;25.20;49.90;;;;;;5032154;28;20144;-75
2022/05/07 11:52:06;;;;;;;16.98;3.47;;;24.80;49.70;;;;;;5046460;28;20053;-76
2022/05/07 11:54:33;;;;;;;6.18;2.42;;;24.10;50.20;;;;;;5039106;28;20052;-76
2022/05/07 11:57:01;;;;;;;8.45;2.55;;;23.50;51.20;;;;;;5045795;28;20123;-76
2022/05/07 11:59:31;;;;;;;5.05;2.58;;;23.10;52.00;;;;;;5052184;28;20052;-76
2022/05/07 12:01:58;;;;;;;9.35;2.58;;;22.80;52.70;;;;;;5050643;28;20509;-82
2022/05/07 12:04:34;;;;;;;8.15;3.00;;;23.30;53.00;;;;;;5033695;28;20064;-81
2022/05/07 12:07:04;;;;;;;9.07;2.53;;;25.80;50.00;;;;;;5066115;28;20378;-76
2022/05/07 12:09:33;;;;;;;10.05;3.08;;;27.60;47.20;;;;;;5074570;28;20053;-77
2022/05/07 12:12:01;;;;;;;7.18;3.10;;;28.90;45.40;;;;;;5047360;28;20048;-77
2022/05/07 12:14:32;;;;;;;3.63;2.28;;;30.40;43.70;;;;;;5045969;28;20052;-75
2022/05/07 12:19:53;;;;;;;7.47;2.67;;;28.30;45.00;;;;;;5023572;28;20049;-76
2022/05/07 12:30:41;;;;;;;7.47;2.20;;;24.60;50.90;;;;;;5051337;28;20511;-79
2022/05/07 12:33:10;;;;;;;7.18;2.95;;;24.60;51.70;;;;;;5034417;28;20124;-81
2022/05/07 12:35:38;;;;;;;4.93;2.78;;;23.70;53.00;;;;;;5041329;28;20139;-80
2022/05/07 12:38:05;;;;;;;7.80;2.50;;;22.70;55.10;;;;;;5072316;28;20053;-82
2022/05/07 12:40:36;;;;;;;16.23;3.35;;;21.80;57.20;;;;;;5027923;28;20143;-80
2022/05/07 12:43:04;;;;;;;11.90;4.63;;;21.10;66.40;;;;;;5032751;28;20079;-78
2022/05/07 12:45:34;;;;;;;34.08;5.97;;;19.70;80.70;;;;;;5052770;28;20273;-81
2022/05/07 12:48:03;;;;;;;11.25;4.93;;;18.20;99.90;;;;;;5048726;28;20563;-78
2022/05/07 12:50:35;;;;;;;17.45;4.53;;;16.90;99.90;;;;;;5048289;28;20436;-79
2022/05/07 12:53:03;;;;;;;10.27;4.47;;;15.70;99.90;;;;;;5052728;28;20053;-81
2022/05/07 12:58:25;;;;;;;6.13;2.90;;;14.00;99.90;;;;;;5048570;28;20049;-81
2022/05/07 13:00:52;;;;;;;6.40;2.78;;;13.80;99.90;;;;;;5053289;28;20099;-84
2022/05/07 13:03:23;;;;;;;3.75;2.85;;;13.90;99.90;;;;;;5052508;28;20057;-83
2022/05/07 13:05:54;;;;;;;;;;;14.40;99.90;;;;;;5055639;28;20071;-84
2022/05/07 13:08:22;;;;;;;4.75;3.60;;;14.90;99.90;;;;;;5052592;28;20343;-86
2022/05/07 13:11:00;;;;;;;4.22;2.80;;;15.10;99.90;;;;;;5057446;28;20055;-82
2022/05/07 13:13:30;;;;;;;8.35;3.85;;;15.30;99.90;;;;;;5059476;28;20551;-84
2022/05/07 13:16:02;;;;;;;7.45;3.22;;;15.70;99.90;;;;;;5049538;28;20531;-82
2022/05/07 13:18:32;;;;;;;7.65;6.28;;;16.20;99.90;;;;;;5039416;28;20520;-84
2022/05/07 13:21:07;;;;;;;9.93;4.40;;;17.80;99.90;;;;;;5061295;28;20049;-80
2022/05/07 13:23:34;;;;;;;6.13;3.13;;;20.40;99.90;;;;;;5050404;28;20469;-80
2022/05/07 13:26:02;;;;;;;11.43;3.17;;;22.60;99.90;;;;;;5043217;28;20044;-78
2022/05/07 13:28:32;;;;;;;8.30;3.67;;;23.40;99.90;;;;;;5050142;28;20516;-79
2022/05/07 13:30:59;;;;;;;6.75;3.15;;;23.10;98.50;;;;;;5037365;28;20045;-78
2022/05/07 13:33:28;;;;;;;10.95;3.72;;;22.70;97.80;;;;;;5050498;28;20061;-80
2022/05/07 13:35:58;;;;;;;5.50;3.60;;;22.30;95.50;;;;;;5050056;28;20128;-81
2022/05/07 13:38:27;;;;;;;5.03;3.38;;;21.80;99.10;;;;;;5051916;28;20144;-79
2022/05/07 13:40:54;;;;;;;10.05;3.78;;;21.10;99.90;;;;;;5053834;28;20111;-82
2022/05/07 13:43:22;;;;;;;6.38;5.55;;;20.40;99.90;;;;;;5048431;28;20083;-78
2022/05/07 13:45:50;;;;;;;8.85;3.72;;;19.70;99.90;;;;;;5048718;28;20083;-79
2022/05/07 13:48:18;;;;;;;13.80;5.07;;;19.20;99.90;;;;;;5022214;28;20417;-79